createdAt,value
2017-10-14T00:03:46.472Z,11.20
2017-10-14T00:08:49.019Z,11.10
2017-10-14T00:13:51.591Z,11.10
2017-10-14T00:18:54.352Z,11.00
2017-10-14T00:23:56.907Z,11.00
2017-10-14T00:28:59.476Z,10.90
2017-10-14T00:34:02.068Z,10.90
2017-10-14T00:39:04.650Z,10.80
2017-10-14T00:44:07.968Z,10.70
2017-10-14T00:49:10.535Z,10.70
2017-10-14T00:54:13.852Z,10.60
2017-10-14T00:59:16.410Z,10.50
2017-10-14T01:04:18.992Z,10.50
2017-10-14T01:09:21.551Z,10.50
2017-10-14T01:14:24.899Z,10.40
2017-10-14T01:19:27.494Z,10.40
2017-10-14T01:24:30.062Z,10.40
2017-10-14T01:29:32.613Z,10.30
2017-10-14T01:34:35.190Z,10.30
2017-10-14T01:39:37.779Z,10.30
2017-10-14T01:44:40.363Z,10.20
2017-10-14T01:49:43.696Z,10.10
2017-10-14T01:54:46.248Z,10.10
2017-10-14T01:59:48.791Z,10.10
2017-10-14T02:04:51.361Z,10.00
2017-10-14T02:09:53.939Z,10.00
2017-10-14T02:14:56.496Z,10.00
2017-10-14T02:19:59.033Z,9.90
2017-10-14T02:25:01.592Z,9.90
2017-10-14T02:30:04.140Z,9.90
2017-10-14T02:35:06.702Z,9.80
2017-10-14T02:40:09.268Z,9.80
2017-10-14T02:45:11.828Z,9.70
2017-10-14T02:50:14.449Z,9.70
2017-10-14T02:55:17.004Z,9.70
2017-10-14T03:00:19.568Z,9.60
2017-10-14T03:05:22.143Z,9.60
2017-10-14T03:10:24.741Z,9.50
2017-10-14T03:15:27.287Z,9.50
2017-10-14T03:20:29.846Z,9.50
2017-10-14T03:25:32.384Z,9.40
2017-10-14T03:30:34.999Z,9.40
2017-10-14T03:35:37.593Z,9.40
2017-10-14T03:40:40.149Z,9.40
2017-10-14T03:45:42.683Z,9.40
2017-10-14T03:50:45.262Z,9.40
2017-10-14T03:55:47.821Z,9.40
2017-10-14T04:00:50.422Z,9.40
2017-10-14T04:05:52.991Z,9.40
2017-10-14T04:10:55.557Z,9.40
2017-10-14T04:15:58.896Z,9.40
2017-10-14T04:21:01.447Z,9.40
2017-10-14T04:26:04.023Z,9.40
2017-10-14T04:31:06.576Z,9.40
2017-10-14T04:36:09.114Z,9.40
2017-10-14T04:41:11.656Z,9.40
2017-10-14T04:46:14.195Z,9.40
2017-10-14T04:51:16.738Z,9.40
2017-10-14T04:56:19.290Z,9.40
2017-10-14T05:01:21.836Z,9.40
2017-10-14T05:06:24.413Z,9.40
2017-10-14T05:11:26.976Z,9.40
2017-10-14T05:16:29.519Z,9.30
2017-10-14T05:21:32.079Z,9.30
2017-10-14T05:26:34.636Z,9.30
2017-10-14T05:31:37.267Z,9.30
2017-10-14T05:36:39.833Z,9.30
2017-10-14T05:41:42.400Z,9.30
2017-10-14T05:46:44.956Z,9.30
2017-10-14T05:51:47.531Z,9.30
2017-10-14T05:56:50.858Z,9.30
2017-10-14T06:01:53.415Z,9.30
2017-10-14T06:06:55.996Z,9.30
2017-10-14T06:11:58.571Z,9.30
2017-10-14T06:17:01.143Z,9.30
2017-10-14T06:22:03.720Z,9.30
2017-10-14T06:27:06.273Z,9.30
2017-10-14T06:32:08.829Z,9.40
2017-10-14T06:37:11.369Z,9.40
2017-10-14T06:42:14.020Z,9.40
2017-10-14T06:47:16.555Z,9.40
2017-10-14T06:52:19.887Z,9.50
2017-10-14T06:57:22.435Z,9.50
2017-10-14T07:02:25.020Z,9.50
2017-10-14T07:07:27.573Z,9.60
2017-10-14T07:12:30.138Z,9.60
2017-10-14T07:17:32.704Z,9.70
2017-10-14T07:22:35.284Z,9.70
2017-10-14T07:27:37.893Z,9.80
2017-10-14T07:32:40.435Z,9.80
2017-10-14T07:37:42.995Z,9.90
2017-10-14T07:42:45.554Z,10.00
2017-10-14T07:47:48.095Z,10.00
2017-10-14T07:52:50.682Z,10.10
2017-10-14T07:57:53.268Z,10.20
2017-10-14T08:02:55.851Z,10.20
2017-10-14T08:07:58.425Z,10.30
2017-10-14T08:13:00.990Z,10.40
2017-10-14T08:18:03.592Z,10.50
2017-10-14T08:23:06.155Z,10.60
2017-10-14T08:28:09.534Z,10.80
2017-10-14T08:33:12.080Z,10.80
2017-10-14T08:38:14.657Z,10.90
2017-10-14T08:43:17.210Z,11.00
2017-10-14T08:48:19.768Z,11.10
2017-10-14T08:53:23.099Z,11.30
2017-10-14T08:58:25.640Z,11.20
2017-10-14T09:03:28.205Z,11.40
2017-10-14T09:08:30.788Z,11.40
2017-10-14T09:13:33.354Z,11.60
2017-10-14T09:18:35.946Z,11.70
2017-10-14T09:23:38.512Z,11.80
2017-10-14T09:28:41.074Z,12.00
2017-10-14T09:33:43.635Z,12.10
2017-10-14T09:38:46.198Z,12.30
2017-10-14T09:43:48.770Z,12.40
2017-10-14T09:48:51.330Z,12.70
2017-10-14T09:53:53.924Z,13.00
2017-10-14T09:58:56.494Z,13.30
2017-10-14T10:03:59.069Z,13.60
2017-10-14T10:09:02.420Z,14.40
2017-10-14T10:14:05.031Z,14.30
2017-10-14T10:19:07.773Z,14.70
2017-10-14T10:24:10.386Z,15.10
2017-10-14T10:29:13.735Z,15.80
2017-10-14T10:34:16.303Z,15.80
2017-10-14T10:39:18.864Z,16.10
2017-10-14T10:44:21.436Z,16.40
2017-10-14T10:49:23.999Z,16.80
2017-10-14T10:54:26.562Z,17.00
2017-10-14T10:59:29.126Z,17.30
2017-10-14T11:04:31.750Z,17.50
2017-10-14T11:09:34.339Z,17.80
2017-10-14T11:14:36.919Z,18.10
2017-10-14T11:19:39.519Z,18.30
2017-10-14T11:24:42.098Z,18.70
2017-10-14T11:29:44.660Z,18.90
2017-10-14T11:34:47.233Z,19.10
2017-10-14T11:39:49.803Z,19.30
2017-10-14T11:44:53.167Z,19.80
2017-10-14T11:49:55.732Z,19.80
2017-10-14T11:54:58.284Z,20.10
2017-10-14T12:00:00.855Z,20.30
2017-10-14T12:05:03.455Z,20.50
2017-10-14T12:10:06.030Z,20.70
2017-10-14T12:15:08.595Z,20.90
2017-10-14T12:20:11.157Z,21.00
2017-10-14T12:25:13.719Z,21.20
2017-10-14T12:30:16.264Z,21.30
2017-10-14T12:35:18.808Z,21.40
2017-10-14T12:40:21.388Z,21.60
2017-10-14T12:45:24.759Z,21.80
2017-10-14T12:50:27.355Z,21.80
2017-10-14T12:55:29.929Z,21.90
2017-10-14T13:00:32.482Z,22.00
2017-10-14T13:05:35.059Z,22.10
2017-10-14T13:10:37.668Z,22.20
2017-10-14T13:15:40.376Z,22.30
2017-10-14T13:20:42.925Z,22.00
2017-10-14T13:25:45.474Z,21.80
2017-10-14T13:30:48.036Z,21.60
2017-10-14T13:35:50.588Z,21.60
2017-10-14T13:40:53.147Z,21.50
2017-10-14T13:45:55.713Z,21.40
2017-10-14T13:50:58.248Z,21.50
2017-10-14T13:56:00.823Z,21.50
2017-10-14T14:01:03.391Z,21.60
2017-10-14T14:06:05.946Z,21.50
2017-10-14T14:11:08.516Z,21.50
2017-10-14T14:16:11.072Z,21.60
2017-10-14T14:21:13.627Z,21.70
2017-10-14T14:26:16.172Z,21.60
2017-10-14T14:31:18.803Z,21.70
2017-10-14T14:36:21.372Z,21.90
2017-10-14T14:41:23.950Z,22.00
2017-10-14T14:46:31.110Z,21.80
2017-10-14T14:51:33.788Z,21.60
2017-10-14T14:56:36.343Z,21.40
2017-10-14T15:01:38.902Z,21.40
2017-10-14T15:06:41.455Z,21.50
2017-10-14T15:11:44.048Z,21.50
2017-10-14T15:16:46.626Z,21.50
2017-10-14T15:21:49.174Z,21.50
2017-10-14T15:26:51.753Z,21.40
2017-10-14T15:31:54.295Z,21.40
2017-10-14T15:36:56.861Z,21.30
2017-10-14T15:41:59.405Z,21.20
2017-10-14T15:47:01.942Z,21.10
2017-10-14T15:52:04.492Z,21.00
2017-10-14T15:57:07.094Z,20.90
2017-10-14T16:02:09.633Z,20.70
2017-10-14T16:07:12.183Z,20.50
2017-10-14T16:12:14.729Z,20.40
2017-10-14T16:17:17.271Z,20.20
2017-10-14T16:22:19.831Z,20.00
2017-10-14T16:27:22.376Z,19.80
2017-10-14T16:32:24.919Z,19.60
2017-10-14T16:37:27.472Z,19.40
2017-10-14T16:42:30.052Z,19.20
2017-10-14T16:47:32.599Z,19.10
2017-10-14T16:52:35.188Z,18.90
2017-10-14T16:57:37.759Z,18.70
2017-10-14T17:02:40.335Z,18.50
2017-10-14T17:07:42.932Z,18.30
2017-10-14T17:12:45.484Z,18.10
2017-10-14T17:17:48.084Z,18.00
2017-10-14T17:22:50.657Z,17.80
2017-10-14T17:27:53.978Z,17.50
2017-10-14T17:32:56.548Z,17.40
2017-10-14T17:37:59.079Z,17.30
2017-10-14T17:43:02.395Z,17.00
2017-10-14T17:48:04.962Z,17.00
2017-10-14T17:53:07.514Z,16.80
2017-10-14T17:58:10.074Z,16.70
2017-10-14T18:03:12.620Z,16.60
2017-10-14T18:08:15.958Z,16.30
2017-10-14T18:13:18.525Z,16.30
2017-10-14T18:18:21.099Z,16.20
2017-10-14T18:23:24.465Z,15.90
2017-10-14T18:28:27.020Z,15.90
2017-10-14T18:33:29.610Z,15.80
2017-10-14T18:38:32.154Z,15.70
2017-10-14T18:43:34.721Z,15.60
2017-10-14T18:48:38.035Z,15.40
2017-10-14T18:53:41.398Z,15.30
2017-10-14T18:58:44.010Z,15.20
2017-10-14T19:03:46.655Z,15.10
2017-10-14T19:08:49.290Z,15.10
2017-10-14T19:13:51.862Z,14.90
2017-10-14T19:18:54.436Z,14.80
2017-10-14T19:23:57.005Z,14.70
2017-10-14T19:28:59.568Z,14.60
2017-10-14T19:34:02.924Z,14.40
2017-10-14T19:39:05.486Z,14.40
2017-10-14T19:44:08.041Z,14.30
2017-10-14T19:49:10.608Z,14.30
2017-10-14T19:54:13.156Z,14.20
2017-10-14T19:59:15.785Z,14.10
2017-10-14T20:04:18.364Z,14.00
2017-10-14T20:09:21.671Z,13.80
2017-10-14T20:14:24.992Z,13.80
2017-10-14T20:19:27.574Z,13.80
2017-10-14T20:24:30.162Z,13.70
2017-10-14T20:29:32.708Z,13.60
2017-10-14T20:34:35.273Z,13.60
2017-10-14T20:39:37.809Z,13.50
2017-10-14T20:44:40.362Z,13.40
2017-10-14T20:49:42.919Z,13.40
2017-10-14T20:54:46.271Z,13.20
2017-10-14T20:59:48.807Z,13.20
2017-10-14T21:04:51.345Z,13.10
2017-10-14T21:09:53.883Z,13.00
2017-10-14T21:14:56.441Z,13.00
2017-10-14T21:19:58.983Z,12.90
2017-10-14T21:25:02.322Z,12.70
2017-10-14T21:30:04.858Z,12.70
2017-10-14T21:35:07.412Z,12.70
2017-10-14T21:40:09.971Z,12.60
2017-10-14T21:45:12.510Z,12.50
2017-10-14T21:50:15.104Z,12.50
2017-10-14T21:55:17.663Z,12.40
2017-10-14T22:00:20.198Z,12.40
2017-10-14T22:05:23.529Z,12.20
2017-10-14T22:10:26.086Z,12.20
2017-10-14T22:15:29.496Z,12.20
2017-10-14T22:20:32.051Z,12.10
2017-10-14T22:25:34.607Z,12.00
2017-10-14T22:30:37.132Z,12.00
2017-10-14T22:35:39.690Z,12.00
2017-10-14T22:40:42.258Z,11.90
2017-10-14T22:45:44.820Z,11.90
2017-10-14T22:50:47.367Z,11.80
2017-10-14T22:55:49.915Z,11.70
2017-10-14T23:00:52.471Z,11.70
2017-10-14T23:05:55.019Z,11.60
2017-10-14T23:10:57.560Z,11.60
2017-10-14T23:16:00.106Z,11.50
2017-10-14T23:21:03.435Z,11.40
2017-10-14T23:26:05.995Z,11.40
2017-10-14T23:31:08.540Z,11.40
2017-10-14T23:36:11.082Z,11.30
2017-10-14T23:41:13.631Z,11.30
2017-10-14T23:46:16.196Z,11.30
2017-10-14T23:51:18.770Z,11.20
2017-10-14T23:56:21.322Z,11.10
